Flight Track Log - Related Links

Times and Time Zones

All times are in EDT time to prevent confusion due to time zone crossing. See the N244DF flight status page for this flight to view local times or setup timezone preferences in your user account.

Time Position Orientation Groundspeed Altitude Reporting Facility
EDT Latitude Longitude Course Direction KTS MPH feet Rate Location/Type
Thu 04:33:50 PM 43.1758 -76.0875 93° East 167 192 5,300  Level Boston Center
Thu 04:34:51 PM 43.1736 -76.0247 93° East 163 188 6,600 1,339 Climbing Boston Center
Thu 04:35:51 PM 43.1650 -75.9672 102° East 155 178 8,000 1,190 Climbing Boston Center
Thu 04:36:52 PM 43.1561 -75.9128 103° East 152 175 9,000 492 Climbing Boston Center
Thu 04:37:53 PM 43.1419 -75.8322 104° East 204 235 9,000  Level Boston Center
Thu 04:38:53 PM 43.1294 -75.7603 103° East 199 229 9,000  Level Boston Center
Thu 04:40:00 PM 43.1150 -75.6828 104° East 199 229 9,000  Level Boston Center
Thu 04:41:01 PM 43.1044 -75.6111 101° East 196 226 9,000  Level Boston Center
Thu 04:41:56 PM 43.0939 -75.5422 102° East 193 222 9,000  Level Boston Center
Thu 04:42:56 PM 43.0811 -75.4706 104° East 192 221 9,000  Level Boston Center
Thu 04:43:57 PM 43.0664 -75.3958 105° East 194 223 9,000  Level Boston Center
Thu 04:45:04 PM 43.0519 -75.3186 104° East 194 223 9,000  Level Boston Center
Thu 04:46:05 PM 43.0389 -75.2469 104° East 193 222 9,000  Level Boston Center
Thu 04:47:06 PM 43.0261 -75.1753 104° East 193 222 9,000  Level Boston Center
Thu 04:48:07 PM 43.0133 -75.1008 103° East 194 223 9,000  Level Boston Center
Thu 04:49:07 PM 43.0003 -75.0292 104° East 194 223 9,000  Level Boston Center
Thu 04:50:02 PM 42.9853 -74.9633 107° East 195 224 9,000  Level Boston Center
Thu 04:51:03 PM 42.9719 -74.8975 105° East 188 216 9,000  Level Boston Center
Thu 04:52:03 PM 42.9569 -74.8289 107° East 185 213 9,000  Level Boston Center
Thu 04:52:43 PM 42.9494 -74.7803 102° East 185 213 9,000  Level Boston Center
Thu 04:53:44 PM 42.9342 -74.7144 108° East 184 212 9,000  Level Boston Center
Thu 04:54:44 PM 42.9208 -74.6461 105° East 183 211 9,000  Level Boston Center
Thu 04:55:39 PM 42.9097 -74.5833 104° East 184 212 9,000  Level Boston Center
Thu 04:56:34 PM 42.8961 -74.5203 106° East 184 212 9,000 -313 Level Boston Center
Thu 04:57:34 PM 42.8892 -74.4492 98° East 190 219 8,400 -744 Descending Boston Center
Thu 04:58:35 PM 42.8861 -74.3783 93° East 192 221 7,500 -891 Descending Boston Center
Thu 04:59:42 PM 42.8792 -74.3044 97° East 186 214 6,500 -891 Descending Boston Center
Thu 05:00:43 PM 42.8758 -74.2392 94° East 172 198 5,600 -939 Descending Boston Center
Thu 05:01:37 PM 42.8728 -74.1794 94° East 168 193 4,700 -1,046 Descending Boston Center
Thu 05:02:32 PM 42.8653 -74.1283 101° East 161 185 3,700 -1,156 Descending Boston Center
Thu 05:03:26 PM 42.8617 -74.0717 95° East 162 186 2,600 -1,140 Descending Boston Center
Thu 05:04:33 PM 42.8586 -74.0064 94° East 157 181 1,400 -656 Descending Boston Center
Thu 05:05:34 PM 42.8594 -73.9469 89° East 140 161 1,200 -188 Descending Boston Center
Thu 05:06:41 PM 42.8642 -73.8989 82° East 110 127 1,000 -283 Descending Boston Center
Thu 05:07:41 PM 42.8472 -73.9211 224° Southwest 107 123 600 -400 Descending Boston Center
Thu 05:09:00 PM 42.8500 -73.9167 270° West  Level FlightAware Approximate
Thu 05:16:00 PM 42.8526 -73.9290 270° West  Level Estimated
Thu 05:17:00 PM 42.8526 -73.9290 270° West  Level Estimated
Thu 05:18:00 PM 42.8526 -73.9290 270° West  Level Estimated

Login

Don't have an account? Register now (free) for customized features, flight alerts, and more!